Latest Coastal Weather Observations for Newcastle Nobbys

IDN60701

Issued at 3:51 am EST Tuesday 30 August 2016 (issued every 10 minutes, with the page automatically refreshed every 10 minutes)

About coastal observations | Map of coastal stations | Coastal observations for NSW | Marine services | Other Formats
Station Details ID: 061055 Name: NEWCASTLE NOBBYS SIGNAL STATION AWS Lat: -32.92 Lon: 151.80 Height: 33.0 m
Data from the previous 72 hours. | See also: Recent months at Newcastle Nobbys
Date/Time
EST
Temp
°C
Wind Pressure Rain since
9am
mm
Weather Cloud Vis
km
Sea
Height
m
Swell
Dir  Spd
kts
Gust
kts
hPa Trend Height
m
Period
s
Dir
30/03:30am 15.0 NNE 5 7 - - 0.0 - - - - - - -
30/03:00am 15.4 NNE 4 5 - - 0.0 - - - - - - -
30/02:30am 16.4 NE 5 7 - - 0.0 - - - - - - -
30/02:00am 16.1 NE 7 10 - - 0.0 - - - - - - -
30/01:30am 16.2 ENE 6 8 - - 0.0 - - - - - - -
30/01:00am 16.3 ENE 6 8 - - 0.0 - - - - - - -
30/12:30am 16.0 ENE 4 7 - - 0.0 - - - - - - -
30/12:00am 15.8 NE 7 9 - - 0.0 - - - - - - -
 
Date/Time
EST
Temp
°C
Wind Pressure Rain since
9am
mm
Weather Cloud Vis
km
Sea
Height
m
Swell
Dir  Spd
kts
Gust
kts
hPa Trend Height
m
Period
s
Dir
29/11:30pm 15.5 NE 6 9 - - 0.0 - - - - - - -
29/11:00pm 15.6 N 4 6 - - 0.0 - - - - - - -
29/10:30pm 16.2 NNE 8 11 - - 0.0 - - - - - - -
29/10:00pm 16.3 NE 9 12 - - 0.0 - - - - - - -
29/09:30pm 16.1 NE 8 10 - - 0.0 - - - - - - -
29/09:00pm 17.0 NE 9 12 - - 0.0 - - - - - - -
29/08:30pm 16.9 ENE 7 11 - - 0.0 - - - - - - -
29/08:00pm 16.8 ENE 8 11 - - 0.0 - - - - - - -
29/07:30pm 17.0 NE 9 13 - - 0.0 - - - - - - -
29/07:00pm 16.9 ENE 11 14 - - 0.0 - - - - - - -
29/06:30pm 16.9 ENE 11 13 - - 0.0 - - - - - - -
29/06:00pm 17.0 ENE 10 12 - - 0.0 - - - - - - -
29/05:30pm 16.9 E 11 13 - - 0.0 - - - - - - -
29/05:00pm 16.9 E 11 13 - - 0.0 - - - - - - -
29/04:30pm 16.9 E 11 13 - - 0.0 - - - - - - -
29/04:00pm 17.4 ESE 11 12 - - 0.0 - - - - - - -
29/03:30pm 17.4 ESE 10 12 - - 0.0 - - - - - - -
29/03:00pm 17.6 ESE 11 12 - - 0.0 - - - - - - -
29/02:30pm 17.4 ESE 9 10 - - 0.0 - - - - - - -
29/02:00pm 17.8 ESE 9 10 - - 0.0 - - - - - - -
29/01:30pm 18.1 SE 8 9 - - 0.0 - - - - - - -
29/01:00pm 17.7 SE 6 8 - - 0.0 - - - - - - -
29/12:30pm 18.0 SE 6 7 - - 0.0 - - - - - - -
29/12:00pm 18.6 SE 5 7 - - 0.0 - - - - - - -
29/11:30am 19.7 ESE 4 5 - - 0.0 - - - - - - -
29/11:00am 19.4 N 3 4 - - 0.0 - - - - - - -
29/10:30am 17.6 NW 4 5 - - 0.0 - - - - - - -
29/10:00am 16.0 NW 6 8 - - 0.0 - - - - - - -
29/09:30am 14.5 NW 8 10 - - 0.0 - - - - - - -
29/09:00am 12.9 NW 8 10 - - 0.0 - - - - - - -
29/08:30am 11.9 NW 6 8 - - 0.0 - - - - - - -
29/08:00am 10.7 NW 10 12 - - 0.0 - - - - - - -
29/07:30am 9.1 NW 7 9 - - 0.0 - - - - - - -
29/07:00am 8.4 WNW 7 9 - - 0.0 - - - - - - -
29/06:30am 7.9 NW 8 10 - - 0.0 - - - - - - -
29/06:00am 8.2 WNW 7 9 - - 0.0 - - - - - - -
29/05:30am 8.5 WNW 7 9 - - 0.0 - - - - - - -
29/05:00am 8.8 WNW 6 8 - - 0.0 - - - - - - -
29/04:30am 8.8 W 5 6 - - 0.0 - - - - - - -
29/04:00am 8.9 WNW 5 7 - - 0.0 - - - - - - -
29/03:30am 9.1 WNW 5 6 - - 0.0 - - - - - - -
29/03:00am 9.4 NW 5 7 - - 0.0 - - - - - - -
29/02:30am 9.8 WNW 4 5 - - 0.0 - - - - - - -
29/02:00am 9.9 WNW 4 6 - - 0.0 - - - - - - -
29/01:30am 10.6 WNW 4 6 - - 0.0 - - - - - - -
29/01:00am 10.6 WNW 5 6 - - 0.0 - - - - - - -
29/12:30am 11.3 WNW 5 7 - - 0.0 - - - - - - -
29/12:00am 11.7 NW 4 5 - - 0.0 - - - - - - -
 
Date/Time
EST
Temp
°C
Wind Pressure Rain since
9am
mm
Weather Cloud Vis
km
Sea
Height
m
Swell
Dir  Spd
kts
Gust
kts
hPa Trend Height
m
Period
s
Dir
28/11:30pm 12.4 WNW 5 6 - - 0.0 - - - - - - -
28/11:00pm 12.7 W 5 5 - - 0.0 - - - - - - -
28/10:30pm 13.2 W 5 5 - - 0.0 - - - - - - -
28/10:00pm 13.4 WNW 3 4 - - 0.0 - - - - - - -
28/09:30pm 14.7 WNW 3 4 - - 0.0 - - - - - - -
28/09:00pm 16.1 S 7 9 - - 0.0 - - - - - - -
28/08:30pm 16.1 S 8 10 - - 0.0 - - - - - - -
28/08:00pm 16.0 S 11 14 - - 0.0 - - - - - - -
28/07:30pm 16.1 SSE 12 15 - - 0.0 - - - - - - -
28/07:00pm 15.8 WSW 3 5 - - 0.0 - - - - - - -
28/06:30pm 16.5 SSE 6 8 - - 0.0 - - - - - - -
28/06:00pm 16.4 SE 8 10 - - 0.0 - - - - - - -
28/05:30pm 16.4 SE 9 10 - - 0.0 - - - - - - -
28/05:00pm 17.0 SE 10 11 - - 0.0 - - - - - - -
28/04:30pm 17.3 SE 9 10 - - 0.0 - - - - - - -
28/04:00pm 17.6 SE 9 9 - - 0.0 - - - - - - -
28/03:30pm 18.8 SE 7 9 - - 0.0 - - - - - - -
28/03:00pm 19.4 S 7 9 - - 0.0 - - - - - - -
28/02:30pm 20.8 WNW 6 9 - - 0.0 - - - - - - -
28/02:00pm 20.5 W 8 11 - - 0.0 - - - - - - -
28/01:30pm 19.7 WNW 6 9 - - 0.0 - - - - - - -
28/01:00pm 19.3 NW 9 13 - - 0.0 - - - - - - -
28/12:30pm 18.4 WNW 9 12 - - 0.0 - - - - - - -
28/12:00pm 18.0 NW 10 16 - - 0.0 - - - - - - -
28/11:30am 17.9 WNW 10 13 - - 0.0 - - - - - - -
28/11:00am 17.0 WNW 10 13 - - 0.0 - - - - - - -
28/10:30am 15.4 WNW 14 19 - - 0.0 - - - - - - -
28/10:00am 14.3 NW 12 17 - - 0.0 - - - - - - -
28/09:30am 14.1 WNW 14 18 - - 0.0 - - - - - - -
28/09:00am 12.5 NW 16 21 - - 0.2 - - - - - - -
28/08:30am 11.4 WNW 14 18 - - 0.2 - - - - - - -
28/08:00am 10.5 WNW 17 23 - - 0.2 - - - - - - -
28/07:30am 9.5 WNW 12 16 - - 0.2 - - - - - - -
28/07:00am 8.7 WNW 11 14 - - 0.2 - - - - - - -
28/06:30am 8.5 WNW 14 19 - - 0.2 - - - - - - -
28/06:00am 8.0 WNW 11 15 - - 0.2 - - - - - - -
28/05:30am 8.0 WNW 8 11 - - 0.2 - - - - - - -
28/05:00am 8.5 WNW 12 16 - - 0.2 - - - - - - -
28/04:30am 9.1 NW 12 18 - - 0.2 - - - - - - -
28/04:00am 9.6 WNW 11 16 - - 0.2 - - - - - - -
28/03:30am 9.6 WNW 9 11 - - 0.2 - - - - - - -
28/03:00am 9.5 WNW 9 11 - - 0.2 - - - - - - -
28/02:30am 9.9 WNW 9 11 - - 0.2 - - - - - - -
28/02:00am 10.6 NW 11 14 - - 0.2 - - - - - - -
28/01:30am 10.6 WNW 7 10 - - 0.2 - - - - - - -
28/01:00am 11.1 NW 6 8 - - 0.2 - - - - - - -
28/12:30am 11.0 NW 6 8 - - 0.2 - - - - - - -
28/12:00am 11.2 NW 7 9 - - 0.2 - - - - - - -
 
Date/Time
EST
Temp
°C
Wind Pressure Rain since
9am
mm
Weather Cloud Vis
km
Sea
Height
m
Swell
Dir  Spd
kts
Gust
kts
hPa Trend Height
m
Period
s
Dir
27/11:30pm 11.3 WNW 6 8 - - 0.2 - - - - - - -
27/11:00pm 11.4 WNW 7 10 - - 0.2 - - - - - - -
27/10:30pm 12.0 WNW 4 6 - - 0.2 - - - - - - -
27/10:00pm 12.5 NNW 6 8 - - 0.2 - - - - - - -
27/09:30pm 12.4 NW 6 8 - - 0.2 - - - - - - -
27/09:00pm 13.6 NW 6 8 - - 0.2 - - - - - - -
27/08:30pm 14.3 NNE 7 9 - - 0.2 - - - - - - -
27/08:00pm 14.4 NNE 7 8 - - 0.2 - - - - - - -
27/07:30pm 14.8 N 6 7 - - 0.2 - - - - - - -
27/07:00pm 15.3 ENE 4 7 - - 0.2 - - - - - - -
27/06:30pm 15.3 ENE 6 7 - - 0.2 - - - - - - -
27/06:00pm 15.2 E 6 8 - - 0.2 - - - - - - -
27/05:30pm 15.3 ESE 6 9 - - 0.2 - - - - - - -
27/05:00pm 15.8 ESE 5 7 - - 0.2 - - - - - - -
27/04:30pm 16.3 ESE 4 5 - - 0.2 - - - - - - -
27/04:00pm 16.7 E 4 6 - - 0.2 - - - - - - -
27/03:30pm 16.8 ESE 5 7 - - 0.2 - - - - - - -
27/03:00pm 16.8 SE 5 7 - - 0.2 - - - - - - -
27/02:30pm 16.8 SE 7 8 - - 0.2 - - - - - - -
27/02:00pm 16.5 SSE 8 10 - - 0.2 - - - - - - -
27/01:30pm 16.3 SSE 8 10 - - 0.2 - - - - - - -
27/01:00pm 16.1 S 8 10 - - 0.2 - - - - - - -
27/12:30pm 15.9 S 9 11 - - 0.2 - - - - - - -
27/12:00pm 16.0 S 7 9 - - 0.2 Recent precip. - - - - - -
27/11:30am 16.0 S 5 8 - - 0.0 - - - - - - -
27/11:00am 15.2 SSW 6 10 - - 0.0 - - - - - - -
27/10:30am 15.9 SW 4 8 - - 0.0 - - - - - - -
27/10:00am 13.7 WNW 8 11 - - 0.0 - - - - - - -
27/09:30am 12.7 WNW 8 10 - - 0.0 - - - - - - -
27/09:00am 11.5 W 7 9 - - 4.4 Recent precip. - - - - - -
27/08:30am 12.6 WSW 3 5 - - 4.0 - - - - - - -
27/08:00am 13.1 WNW 5 8 - - 4.0 - - - - - - -
27/07:30am 11.8 W 5 8 - - 4.0 - - - - - - -
27/07:00am 11.4 SW 7 13 - - 4.0 - - - - - - -
27/06:30am 11.1 SW 8 14 - - 4.0 - - - - - - -
27/06:00am 11.0 SW 10 18 - - 4.0 - - - - - - -
27/05:30am 10.9 SW 9 15 - - 4.0 - - - - - - -
27/05:00am 10.9 SW 10 15 - - 4.0 - - - - - - -
27/04:30am 11.5 SW 9 14 - - 4.0 - - - - - - -
27/04:00am 11.2 SW 10 16 - - 4.0 - - - - - - -

Other Formats:

Comma delimited format used in spreadsheet applications
http://www.bom.gov.au/fwo/IDN60701/IDN60701.94774.axf

JavaScript Object Notation format (JSON) in row-major order
http://www.bom.gov.au/fwo/IDN60701/IDN60701.94774.json